Scott, Indiana
Current Conditions -  °F | °C
As of 4:15 AM on Thursday 23 Oct 2014 (Local Time) from KANQ Reporting Station
Overcast Overcast  
Wind Chill: -1°   Ceiling: 100
Heat Index: -1°   Visibility: 0mi
Dew Point: -8°   Wind: 0mph
Humidity: 60%   Direction: NA
Pressure: 30.26"   Gusts: NA
Location:  41.6594°N, 85.0055°W
Report Text: KANQ 230815Z AUTO 00000KT M1/4SM OVC001 M01/M08 A3026 RMK
Loading
Personal Weather Stations






























Interactive Weather Map
Tropical Storm Tracking
New forecast layout! Learn more

10-Day Weather Forecast

Advertisements
Track Severe Weather on mobile